Time;durP1;ratioP1;P1;durP2;ratioP2;P2;SDS_P1;SDS_P2;PMS_P1;PMS_P2;Temp;Humidity;BMP_temperature;BMP_pressure;BME280_temperature;BME280_humidity;BME280_pressure;Samples;Min_cycle;Max_cycle;Signal;HPM_P1;HPM_P2
2023/10/11 00:04:48;;;;;;;8.65;2.90;;;11.90;99.70;;;;;;25588799;23;20009;-52
2023/10/11 00:14:50;;;;;;;12.82;2.72;;;11.70;99.90;;;;;;25592838;23;20328;-52
2023/10/11 00:24:52;;;;;;;13.32;2.65;;;11.40;99.90;;;;;;25593871;23;20320;-59
2023/10/11 00:34:54;;;;;;;20.25;2.67;;;11.80;99.90;;;;;;25593838;23;20005;-58
2023/10/11 00:44:56;;;;;;;8.00;2.55;;;11.50;99.90;;;;;;25566403;23;20483;-53
2023/10/11 00:54:59;;;;;;;10.48;2.53;;;11.60;99.90;;;;;;25566473;23;20028;-53
2023/10/11 01:05:01;;;;;;;7.97;2.28;;;11.50;99.90;;;;;;25593657;23;20005;-59
2023/10/11 01:15:03;;;;;;;16.15;2.38;;;11.20;99.90;;;;;;25590327;23;20017;-53
2023/10/11 01:25:06;;;;;;;8.45;2.10;;;11.80;99.90;;;;;;25589854;23;20013;-53
2023/10/11 01:35:19;;;;;;;11.18;3.08;;;11.60;99.90;;;;;;25591517;23;20009;-59
2023/10/11 01:45:23;;;;;;;10.05;2.50;;;11.40;99.90;;;;;;25633231;23;20060;-59
2023/10/11 01:55:25;;;;;;;14.40;2.67;;;11.20;99.90;;;;;;25564045;23;20559;-49
2023/10/11 02:05:27;;;;;;;12.43;2.17;;;11.00;99.90;;;;;;25591229;23;20059;-50
2023/10/11 02:15:34;;;;;;;8.65;2.17;;;11.20;99.90;;;;;;25629568;23;20009;-52
2023/10/11 02:25:37;;;;;;;15.43;2.83;;;11.00;99.90;;;;;;25561618;23;20012;-52
2023/10/11 02:36:08;;;;;;;10.82;1.90;;;10.60;99.90;;;;;;25587041;23;20001;-53
2023/10/11 02:46:03;;;;;;;14.10;2.63;;;11.10;99.90;;;;;;25586338;23;20048;-52
2023/10/11 02:56:05;;;;;;;12.45;2.80;;;11.10;99.90;;;;;;25587073;23;20380;-52
2023/10/11 03:06:08;;;;;;;8.43;2.20;;;10.80;99.90;;;;;;25586681;23;20009;-52
2023/10/11 03:16:18;;;;;;;12.07;2.88;;;10.90;99.90;;;;;;25560599;23;20009;-54
2023/10/11 03:36:35;;;;;;;11.32;2.50;;;10.60;99.90;;;;;;25558652;23;20064;-50
2023/10/11 03:46:38;;;;;;;13.73;2.67;;;10.70;99.90;;;;;;25584496;23;20273;-54
2023/10/11 03:56:53;;;;;;;12.02;2.75;;;10.60;99.90;;;;;;25584475;23;20016;-51
2023/10/11 04:07:01;;;;;;;12.80;2.40;;;10.40;99.90;;;;;;25625726;23;20009;-52
2023/10/11 04:17:04;;;;;;;11.25;2.60;;;10.30;99.90;;;;;;25626600;23;20388;-51
2023/10/11 04:37:33;;;;;;;10.43;2.47;;;10.50;99.90;;;;;;25626529;23;20020;-49
2023/10/11 04:47:51;;;;;;;10.55;2.88;;;10.50;99.90;;;;;;25625901;23;20005;-58
2023/10/11 04:58:07;;;;;;;11.30;2.78;;;10.50;99.90;;;;;;25602719;23;20471;-51
2023/10/11 05:08:21;;;;;;;8.82;2.45;;;10.30;99.90;;;;;;25631611;23;20005;-50
2023/10/11 05:18:24;;;;;;;11.93;2.42;;;10.20;99.90;;;;;;25632445;23;20369;-58
2023/10/11 05:28:27;;;;;;;13.00;2.30;;;10.20;99.90;;;;;;25589513;23;20005;-59
2023/10/11 05:59:10;;;;;;;;;;;10.40;99.90;;;;;;25571028;23;20260;-51
2023/10/11 06:09:17;;;;;;;14.50;3.05;;;10.80;99.90;;;;;;25561821;23;19919;-59
2023/10/11 06:19:19;;;;;;;9.38;3.30;;;10.90;99.90;;;;;;25630076;23;20009;-51
2023/10/11 06:29:26;;;;;;;20.15;3.92;;;11.10;99.90;;;;;;25587348;23;20004;-59
2023/10/11 06:49:49;;;;;;;13.63;3.95;;;11.40;99.90;;;;;;25627453;23;20009;-59
2023/10/11 06:59:56;;;;;;;14.52;3.83;;;11.70;99.90;;;;;;25560672;23;20285;-51
2023/10/11 07:10:01;;;;;;;14.85;3.10;;;12.20;99.90;;;;;;25627812;23;20016;-57
2023/10/11 07:20:29;;;;;;;13.15;3.08;;;13.00;99.90;;;;;;25584838;23;20475;-51
2023/10/11 07:30:27;;;;;;;10.25;3.33;;;14.00;99.90;;;;;;25585206;23;20004;-51
2023/10/11 07:40:34;;;;;;;14.75;3.35;;;15.00;99.90;;;;;;25585303;23;20336;-61
2023/10/11 07:50:38;;;;;;;13.57;3.90;;;16.20;99.90;;;;;;25626545;23;20005;-61
2023/10/11 08:00:43;;;;;;;11.40;3.28;;;17.30;99.90;;;;;;25584229;23;20013;-51
2023/10/11 08:10:44;;;;;;;12.32;3.20;;;18.00;99.90;;;;;;25584099;23;20001;-62
2023/10/11 08:20:46;;;;;;;9.02;3.25;;;18.60;98.30;;;;;;25584955;23;20001;-61
2023/10/11 08:30:48;;;;;;;11.10;3.42;;;19.00;96.40;;;;;;25591731;23;20324;-53
2023/10/11 08:40:58;;;;;;;9.43;3.55;;;19.40;94.70;;;;;;25591232;23;20001;-61
2023/10/11 08:51:02;;;;;;;11.48;3.67;;;20.00;95.50;;;;;;25632680;23;20067;-63
2023/10/11 09:01:04;;;;;;;10.02;3.70;;;20.40;96.60;;;;;;25587267;23;20013;-53
2023/10/11 09:11:11;;;;;;;10.52;4.45;;;20.80;95.70;;;;;;25588472;23;20001;-62
2023/10/11 09:21:18;;;;;;;11.65;4.45;;;21.20;96.20;;;;;;25629035;23;20036;-63
2023/10/11 09:31:22;;;;;;;12.07;4.55;;;21.50;95.50;;;;;;25628813;23;20445;-62
2023/10/11 09:41:33;;;;;;;14.30;4.30;;;21.60;95.00;;;;;;25585992;23;20001;-62
2023/10/11 09:51:35;;;;;;;15.38;5.47;;;22.00;95.40;;;;;;25624924;23;20013;-62
2023/10/11 10:01:51;;;;;;;13.32;5.10;;;22.20;94.50;;;;;;25626106;23;20433;-62
2023/10/11 10:12:20;;;;;;;19.48;7.20;;;22.00;94.30;;;;;;25626903;23;20005;-61
2023/10/11 10:22:27;;;;;;;17.77;6.00;;;22.20;95.00;;;;;;25208078;23;20057;-61
2023/10/11 10:32:29;;;;;;;13.13;6.17;;;22.30;94.90;;;;;;25214571;23;20458;-61
2023/10/11 10:42:32;;;;;;;12.80;5.13;;;22.50;96.00;;;;;;25206227;23;20014;-60
2023/10/11 10:52:34;;;;;;;14.02;5.60;;;22.70;94.60;;;;;;25281629;23;20374;-61
2023/10/11 11:02:37;;;;;;;14.57;6.78;;;22.80;95.60;;;;;;25584147;23;20528;-61
2023/10/11 11:12:40;;;;;;;16.08;9.52;;;23.00;95.50;;;;;;25583535;23;20388;-61
2023/10/11 11:22:45;;;;;;;23.52;10.77;;;23.00;95.90;;;;;;25582669;23;20013;-61
2023/10/11 11:32:48;;;;;;;18.17;8.55;;;23.00;96.70;;;;;;25584372;23;20005;-62
2023/10/11 11:42:50;;;;;;;20.08;11.10;;;22.90;97.10;;;;;;25582475;23;20005;-61
2023/10/11 11:52:56;;;;;;;20.00;10.75;;;22.90;97.60;;;;;;25583810;23;20460;-62
2023/10/11 12:02:58;;;;;;;23.58;11.52;;;23.00;97.50;;;;;;25628832;23;20039;-62
2023/10/11 12:13:06;;;;;;;25.83;13.30;;;23.10;98.20;;;;;;25590409;23;20009;-62
2023/10/11 12:23:07;;;;;;;22.90;13.90;;;23.00;97.70;;;;;;25631782;23;20433;-63
2023/10/11 12:33:09;;;;;;;31.30;13.93;;;22.80;98.20;;;;;;25590478;23;20009;-63
2023/10/11 12:43:11;;;;;;;23.17;13.57;;;22.70;99.00;;;;;;25589589;23;20012;-50
2023/10/11 12:53:13;;;;;;;27.52;15.18;;;22.70;99.30;;;;;;25589226;23;20017;-64
2023/10/11 13:03:23;;;;;;;24.85;15.35;;;22.70;99.20;;;;;;25588487;23;20009;-63
2023/10/11 13:13:27;;;;;;;30.98;15.80;;;22.50;99.90;;;;;;25630090;23;20001;-64
2023/10/11 13:23:32;;;;;;;24.67;14.85;;;22.40;99.90;;;;;;25562223;23;20059;-64
2023/10/11 13:33:36;;;;;;;26.05;16.25;;;21.70;99.90;;;;;;25628186;23;20001;-62
2023/10/11 13:43:39;;;;;;;33.10;17.58;;;21.10;99.90;;;;;;25586611;23;20024;-62
2023/10/11 13:53:43;;;;;;;26.98;16.15;;;20.40;99.90;;;;;;25586554;23;20475;-62
2023/10/11 14:03:48;;;;;;;35.65;19.48;;;20.00;99.90;;;;;;25587514;23;20008;-58
2023/10/11 14:13:51;;;;;;;33.53;19.13;;;19.70;99.90;;;;;;25626076;23;20009;-52
2023/10/11 14:23:52;;;;;;;32.65;18.42;;;19.40;99.90;;;;;;25584760;23;20012;-61
2023/10/11 14:33:54;;;;;;;33.55;19.73;;;19.20;99.90;;;;;;25585255;23;20013;-61
2023/10/11 14:43:59;;;;;;;37.58;22.50;;;18.90;99.90;;;;;;25585943;23;20009;-62
2023/10/11 14:54:01;;;;;;;40.38;23.50;;;18.40;99.90;;;;;;25584125;23;20075;-55
2023/10/11 15:04:11;;;;;;;43.55;24.52;;;18.00;99.90;;;;;;25583507;23;20020;-61
2023/10/11 15:14:15;;;;;;;44.35;23.90;;;17.60;99.90;;;;;;25584051;23;20029;-62
2023/10/11 15:24:17;;;;;;;39.30;24.55;;;17.30;99.90;;;;;;25583148;23;20005;-61
2023/10/11 15:34:18;;;;;;;42.70;24.85;;;17.40;99.90;;;;;;25585961;23;20009;-61
2023/10/11 15:44:21;;;;;;;40.17;24.20;;;17.30;99.90;;;;;;25584014;23;20008;-60
2023/10/11 15:54:24;;;;;;;40.78;24.55;;;17.10;99.90;;;;;;25583584;23;20013;-61
2023/10/11 16:04:27;;;;;;;42.53;24.63;;;16.60;99.90;;;;;;25581251;23;20004;-53
2023/10/11 16:14:31;;;;;;;45.92;27.45;;;16.20;99.90;;;;;;25582613;23;20005;-60
2023/10/11 16:24:33;;;;;;;48.75;27.85;;;16.00;99.90;;;;;;25582744;23;20005;-54
2023/10/11 16:34:35;;;;;;;57.30;31.33;;;15.80;99.90;;;;;;25583787;23;20001;-53
2023/10/11 16:44:38;;;;;;;53.03;30.75;;;15.60;99.90;;;;;;25582349;23;20491;-54
2023/10/11 16:54:41;;;;;;;53.72;28.88;;;15.10;99.90;;;;;;25590737;23;20610;-60
2023/10/11 17:04:45;;;;;;;57.20;29.88;;;14.30;99.90;;;;;;25589229;23;20079;-59
2023/10/11 17:14:47;;;;;;;39.50;19.60;;;13.50;99.90;;;;;;25588772;23;20009;-49
2023/10/11 17:24:49;;;;;;;41.85;21.55;;;12.70;99.90;;;;;;25588141;23;20001;-50
2023/10/11 17:34:52;;;;;;;42.50;21.70;;;12.20;99.90;;;;;;25588051;23;20087;-58
2023/10/11 17:44:53;;;;;;;41.05;21.95;;;11.90;99.90;;;;;;25588093;23;20012;-59
2023/10/11 17:54:55;;;;;;;40.40;21.52;;;11.70;99.90;;;;;;25587631;23;20072;-59
2023/10/11 18:05:01;;;;;;;51.42;24.85;;;11.60;99.90;;;;;;25586579;23;20005;-59
2023/10/11 18:15:04;;;;;;;43.67;21.10;;;11.50;99.90;;;;;;25628000;23;20005;-59
2023/10/11 18:25:13;;;;;;;42.85;21.83;;;11.50;99.90;;;;;;25587536;23;20004;-59
2023/10/11 18:35:15;;;;;;;41.50;20.40;;;11.50;99.90;;;;;;25626774;23;20343;-59
2023/10/11 18:45:18;;;;;;;43.85;23.88;;;11.50;99.90;;;;;;25585496;23;20009;-59
2023/10/11 18:55:21;;;;;;;50.85;27.00;;;11.90;99.90;;;;;;25583714;23;20021;-59
2023/10/11 19:05:23;;;;;;;59.45;31.30;;;12.30;99.90;;;;;;25584133;23;20009;-60
2023/10/11 19:15:29;;;;;;;54.08;30.33;;;12.80;99.90;;;;;;25583184;23;20009;-60
2023/10/11 19:25:31;;;;;;;61.33;32.00;;;13.10;99.90;;;;;;25582748;23;20036;-59
2023/10/11 19:35:32;;;;;;;59.47;32.85;;;13.10;99.90;;;;;;25582749;23;20441;-60
2023/10/11 19:45:34;;;;;;;52.25;30.63;;;13.20;99.90;;;;;;25584448;23;20425;-54
2023/10/11 19:55:36;;;;;;;56.92;32.65;;;13.30;99.90;;;;;;25582253;23;20009;-61
2023/10/11 20:05:41;;;;;;;61.85;34.15;;;13.40;99.90;;;;;;25581964;23;20009;-60
2023/10/11 20:15:46;;;;;;;57.92;31.85;;;13.50;99.90;;;;;;25556036;23;20076;-52
2023/10/11 20:25:48;;;;;;;58.00;32.25;;;13.30;99.90;;;;;;25587025;23;20444;-60
2023/10/11 20:35:50;;;;;;;49.42;28.45;;;13.10;99.90;;;;;;25589662;23;20388;-60
2023/10/11 20:45:54;;;;;;;60.40;29.73;;;12.50;99.90;;;;;;25590789;23;20008;-60
2023/10/11 20:55:58;;;;;;;70.60;33.75;;;12.00;99.90;;;;;;25590019;23;20079;-59
2023/10/11 21:06:00;;;;;;;57.15;31.08;;;11.70;99.90;;;;;;25587954;23;20009;-60
2023/10/11 21:16:03;;;;;;;62.30;34.33;;;11.80;99.90;;;;;;25589483;23;20013;-59
2023/10/11 21:26:06;;;;;;;63.90;31.80;;;11.50;99.90;;;;;;25587759;23;20005;-53
2023/10/11 21:36:08;;;;;;;68.22;35.50;;;11.20;99.90;;;;;;25587169;23;20001;-59
2023/10/11 21:46:12;;;;;;;80.85;39.47;;;11.20;99.90;;;;;;25587459;23;20008;-52
2023/10/11 21:56:14;;;;;;;73.53;38.00;;;11.00;99.90;;;;;;25587274;23;20017;-59
2023/10/11 22:06:19;;;;;;;97.28;42.33;;;10.80;99.90;;;;;;25588677;23;20428;-59
2023/10/11 22:16:21;;;;;;;75.70;37.47;;;10.70;99.90;;;;;;25588141;23;20051;-59
2023/10/11 22:26:26;;;;;;;76.75;38.03;;;10.90;99.90;;;;;;25586170;23;20032;-59
2023/10/11 22:36:28;;;;;;;66.53;33.47;;;11.00;99.90;;;;;;25585015;23;20032;-49
2023/10/11 22:46:30;;;;;;;74.05;34.72;;;11.00;99.90;;;;;;25584163;23;20009;-54
2023/10/11 22:56:32;;;;;;;67.82;32.88;;;11.20;99.90;;;;;;25583766;23;20023;-49
2023/10/11 23:06:37;;;;;;;62.33;29.58;;;11.20;99.90;;;;;;25584806;23;20009;-51
2023/10/11 23:16:39;;;;;;;46.70;25.00;;;10.70;99.90;;;;;;25583428;23;20001;-49
2023/10/11 23:26:40;;;;;;;48.28;23.13;;;10.40;99.90;;;;;;25584142;23;20336;-52
2023/10/11 23:36:42;;;;;;;44.28;21.92;;;10.20;99.90;;;;;;25584203;23;20005;-53
2023/10/11 23:46:58;;;;;;;53.08;24.20;;;10.10;99.90;;;;;;25584289;23;20063;-52
2023/10/11 23:57:04;;;;;;;52.60;26.58;;;10.20;99.90;;;;;;25601762;23;20021;-59
